Time;durP1;ratioP1;P1;durP2;ratioP2;P2;SDS_P1;SDS_P2;PMS_P1;PMS_P2;Temp;Humidity;BMP_temperature;BMP_pressure;BME280_temperature;BME280_humidity;BME280_pressure;Samples;Min_cycle;Max_cycle;Signal;HPM_P1;HPM_P2
2022/07/02 00:00:57;;;;;;;8.50;4.77;;;;;;;;;;5034832;28;20462;-76
2022/07/02 00:03:25;;;;;;;4.57;4.23;;;;;;;;;;5034811;28;20859;-76
2022/07/02 00:05:56;;;;;;;5.37;4.37;;;;;;;;;;5034723;28;20493;-76
2022/07/02 00:08:24;;;;;;;5.20;4.77;;;;;;;;;;5034562;28;20435;-76
2022/07/02 00:10:53;;;;;;;5.37;4.87;;;;;;;;;;5034591;28;20500;-76
2022/07/02 00:13:20;;;;;;;5.47;4.97;;;;;;;;;;5034573;28;20482;-78
2022/07/02 00:15:47;;;;;;;7.00;5.83;;;;;;;;;;5034821;28;20442;-76
2022/07/02 00:18:15;;;;;;;6.07;5.13;;;;;;;;;;5034659;28;20938;-77
2022/07/02 00:20:43;;;;;;;5.47;5.00;;;;;;;;;;5034577;28;20450;-76
2022/07/02 00:23:10;;;;;;;5.37;4.70;;;;;;;;;;5034150;28;20442;-76
2022/07/02 00:25:40;;;;;;;5.73;5.23;;;;;;;;;;5034249;28;20489;-76
2022/07/02 00:28:08;;;;;;;5.10;4.60;;;;;;;;;;5033805;28;20875;-77
2022/07/02 00:30:35;;;;;;;5.17;4.10;;;;;;;;;;5034466;28;20999;-77
2022/07/02 00:33:03;;;;;;;5.10;4.40;;;;;;;;;;5034053;28;20478;-77
2022/07/02 00:35:30;;;;;;;5.07;4.77;;;;;;;;;;5034660;28;20442;-76
2022/07/02 00:37:58;;;;;;;5.43;5.03;;;;;;;;;;5033858;28;20442;-77
2022/07/02 00:40:26;;;;;;;4.77;4.47;;;;;;;;;;5033210;28;20437;-76
2022/07/02 00:42:53;;;;;;;3.77;3.57;;;;;;;;;;5033215;28;20466;-76
2022/07/02 00:45:22;;;;;;;4.43;4.03;;;;;;;;;;5032880;28;20447;-76
2022/07/02 00:47:49;;;;;;;5.50;5.00;;;;;;;;;;5033911;28;20454;-76
2022/07/02 00:50:16;;;;;;;4.73;4.33;;;;;;;;;;5037043;28;21055;-76
2022/07/02 00:52:43;;;;;;;4.93;4.53;;;;;;;;;;5034120;28;20501;-76
2022/07/02 00:55:10;;;;;;;4.30;4.00;;;;;;;;;;5033812;28;20927;-76
2022/07/02 00:57:37;;;;;;;4.90;4.50;;;;;;;;;;5033729;28;20442;-76
2022/07/02 01:00:05;;;;;;;5.23;4.80;;;;;;;;;;5033937;28;20486;-76
2022/07/02 01:02:34;;;;;;;5.27;4.77;;;;;;;;;;5033637;28;20512;-77
2022/07/02 01:05:02;;;;;;;4.33;4.13;;;;;;;;;;5033904;28;20473;-75
2022/07/02 01:07:30;;;;;;;5.10;4.70;;;;;;;;;;5033730;28;20484;-77
2022/07/02 01:10:16;;;;;;;5.10;4.70;;;;;;;;;;5017056;28;20438;-74
2022/07/02 01:12:44;;;;;;;9.43;5.00;;;;;;;;;;5013580;28;20846;-77
2022/07/02 01:15:11;;;;;;;4.67;4.27;;;;;;;;;;5013814;28;20998;-77
2022/07/02 01:17:39;;;;;;;4.30;4.00;;;;;;;;;;5013777;28;20448;-76
2022/07/02 01:20:07;;;;;;;4.90;4.50;;;;;;;;;;5014096;28;20865;-77
2022/07/02 01:22:35;;;;;;;4.87;4.47;;;;;;;;;;5013725;28;20452;-76
2022/07/02 01:25:03;;;;;;;5.00;4.60;;;;;;;;;;5013672;28;20450;-75
2022/07/02 01:27:30;;;;;;;5.33;4.50;;;;;;;;;;5013842;28;20476;-76
2022/07/02 01:29:57;;;;;;;5.03;4.60;;;;;;;;;;5013536;28;20860;-77
2022/07/02 01:32:24;;;;;;;5.10;3.80;;;;;;;;;;5013046;28;20545;-75
2022/07/02 01:34:52;;;;;;;4.47;4.07;;;;;;;;;;5013246;28;20455;-77
2022/07/02 01:37:20;;;;;;;4.77;4.37;;;;;;;;;;5013146;28;20478;-76
2022/07/02 01:39:49;;;;;;;5.07;4.67;;;;;;;;;;5013157;28;20497;-77
2022/07/02 01:42:16;;;;;;;4.43;4.03;;;;;;;;;;5012557;28;20545;-76
2022/07/02 01:44:43;;;;;;;4.73;4.33;;;;;;;;;;5012602;28;20498;-76
2022/07/02 01:47:11;;;;;;;7.40;4.40;;;;;;;;;;5013158;28;20506;-76
2022/07/02 01:49:39;;;;;;;4.83;3.90;;;;;;;;;;5013088;28;20944;-77
2022/07/02 01:52:07;;;;;;;4.30;4.00;;;;;;;;;;5013029;28;20487;-77
2022/07/02 01:54:35;;;;;;;4.57;3.97;;;;;;;;;;5012996;28;20497;-78
2022/07/02 01:57:03;;;;;;;4.77;4.30;;;;;;;;;;5012784;28;20439;-76
2022/07/02 01:59:30;;;;;;;3.83;3.53;;;;;;;;;;5012687;28;20509;-76
2022/07/02 02:01:57;;;;;;;4.70;4.30;;;;;;;;;;5013025;28;20914;-76
2022/07/02 02:04:25;;;;;;;8.27;4.00;;;;;;;;;;5012633;28;20498;-79
2022/07/02 02:06:52;;;;;;;4.87;4.47;;;;;;;;;;5012667;28;20444;-77
2022/07/02 02:09:19;;;;;;;4.90;4.50;;;;;;;;;;5023867;28;20472;-76
2022/07/02 02:11:46;;;;;;;4.50;4.10;;;;;;;;;;5032304;28;20485;-77
2022/07/02 02:14:14;;;;;;;4.13;3.83;;;;;;;;;;5032325;28;20920;-77
2022/07/02 02:16:42;;;;;;;4.13;3.70;;;;;;;;;;5032275;28;20501;-77
2022/07/02 02:19:09;;;;;;;4.53;4.13;;;;;;;;;;5032050;28;20867;-76
2022/07/02 02:21:36;;;;;;;6.53;4.10;;;;;;;;;;5032154;28;20459;-76
2022/07/02 02:24:03;;;;;;;6.50;4.17;;;;;;;;;;5032154;28;20496;-77
2022/07/02 02:26:30;;;;;;;4.93;4.37;;;;;;;;;;5032734;28;20446;-76
2022/07/02 02:28:57;;;;;;;4.90;4.50;;;;;;;;;;5032055;28;20446;-76
2022/07/02 02:31:25;;;;;;;5.70;5.23;;;;;;;;;;5031974;28;20489;-75
2022/07/02 02:33:52;;;;;;;4.87;4.47;;;;;;;;;;5032002;28;20438;-77
2022/07/02 02:36:19;;;;;;;4.57;4.17;;;;;;;;;;5031938;28;20845;-76
2022/07/02 02:38:47;;;;;;;4.70;4.30;;;;;;;;;;5031831;28;20442;-77
2022/07/02 02:41:14;;;;;;;4.63;4.33;;;;;;;;;;5031493;28;20474;-77
2022/07/02 02:43:41;;;;;;;5.10;4.57;;;;;;;;;;5031265;28;20934;-76
2022/07/02 02:46:08;;;;;;;5.17;4.63;;;;;;;;;;5031784;28;20450;-77
2022/07/02 02:48:37;;;;;;;5.00;4.67;;;;;;;;;;5031777;28;20454;-76
2022/07/02 02:51:05;;;;;;;4.97;4.13;;;;;;;;;;5031786;28;20466;-77
2022/07/02 02:53:32;;;;;;;4.90;4.50;;;;;;;;;;5031691;28;20483;-77
2022/07/02 02:55:59;;;;;;;5.20;4.80;;;;;;;;;;5039774;28;20531;-76
2022/07/02 02:58:27;;;;;;;5.30;4.90;;;;;;;;;;5038950;28;20507;-76
2022/07/02 03:00:54;;;;;;;5.10;4.60;;;;;;;;;;5039540;28;20473;-78
2022/07/02 03:03:21;;;;;;;4.23;3.90;;;;;;;;;;5039173;28;20450;-77
2022/07/02 03:05:49;;;;;;;5.07;4.67;;;;;;;;;;5039292;28;20476;-75
2022/07/02 03:08:16;;;;;;;4.87;4.47;;;;;;;;;;5031994;28;20438;-75
2022/07/02 03:10:43;;;;;;;4.50;4.20;;;;;;;;;;5031784;28;20442;-76
2022/07/02 03:13:10;;;;;;;5.37;3.90;;;;;;;;;;5031748;28;20478;-77
2022/07/02 03:15:37;;;;;;;4.73;4.33;;;;;;;;;;5031676;28;20443;-78
2022/07/02 03:18:04;;;;;;;6.23;4.77;;;;;;;;;;5031654;28;20992;-77
2022/07/02 03:20:32;;;;;;;4.17;3.90;;;;;;;;;;5031439;28;20992;-76
2022/07/02 03:23:00;;;;;;;4.67;4.37;;;;;;;;;;5031223;28;20451;-77
2022/07/02 03:25:28;;;;;;;4.40;4.10;;;;;;;;;;5031689;28;20816;-77
2022/07/02 03:27:55;;;;;;;5.83;3.93;;;;;;;;;;5031985;28;20443;-77
2022/07/02 03:30:22;;;;;;;6.50;4.50;;;;;;;;;;5031545;28;20934;-77
2022/07/02 03:32:49;;;;;;;4.97;4.27;;;;;;;;;;5031223;28;20490;-76
2022/07/02 03:35:16;;;;;;;4.80;4.30;;;;;;;;;;5032197;28;20450;-76
2022/07/02 03:37:43;;;;;;;5.43;5.03;;;;;;;;;;5032018;28;20857;-76
2022/07/02 03:40:11;;;;;;;4.87;4.47;;;;;;;;;;5031623;28;20492;-77
2022/07/02 03:42:38;;;;;;;4.33;4.03;;;;;;;;;;5031214;28;20901;-76
2022/07/02 03:45:06;;;;;;;5.30;4.80;;;;;;;;;;5032429;28;20442;-77
2022/07/02 03:47:33;;;;;;;5.03;4.73;;;;;;;;;;5032156;28;20438;-77
2022/07/02 03:50:00;;;;;;;5.20;4.87;;;;;;;;;;5036948;28;20855;-76
2022/07/02 03:52:27;;;;;;;4.60;4.30;;;;;;;;;;5035378;28;20486;-77
2022/07/02 03:54:54;;;;;;;5.43;5.03;;;;;;;;;;5031525;28;20516;-76
2022/07/02 03:57:23;;;;;;;5.77;5.30;;;;;;;;;;5031751;28;20446;-77
2022/07/02 03:59:50;;;;;;;4.80;4.50;;;;;;;;;;5031959;28;20446;-76
2022/07/02 04:02:17;;;;;;;4.67;4.27;;;;;;;;;;5031415;28;20481;-76
2022/07/02 04:04:44;;;;;;;5.10;4.70;;;;;;;;;;5030978;28;20446;-77
2022/07/02 04:07:11;;;;;;;4.80;4.40;;;;;;;;;;5031068;28;20473;-77
2022/07/02 04:09:38;;;;;;;5.37;4.97;;;;;;;;;;5031216;28;20454;-76
2022/07/02 04:12:05;;;;;;;6.30;5.70;;;;;;;;;;5030850;28;20497;-76
2022/07/02 04:14:33;;;;;;;5.90;5.03;;;;;;;;;;5030785;28;20454;-78
2022/07/02 04:17:00;;;;;;;5.30;4.90;;;;;;;;;;5031208;28;20838;-77
2022/07/02 04:19:28;;;;;;;5.30;4.90;;;;;;;;;;5031410;28;20446;-76
2022/07/02 04:21:56;;;;;;;5.60;5.20;;;;;;;;;;5034665;28;20462;-77
2022/07/02 04:24:23;;;;;;;6.80;5.37;;;;;;;;;;5034380;28;20446;-76
2022/07/02 04:26:50;;;;;;;6.07;5.47;;;;;;;;;;5034523;28;20438;-76
2022/07/02 04:29:17;;;;;;;5.30;4.90;;;;;;;;;;5034171;28;21130;-76
2022/07/02 04:31:45;;;;;;;4.73;4.37;;;;;;;;;;5034075;28;20470;-77
2022/07/02 04:34:12;;;;;;;5.03;4.60;;;;;;;;;;5034525;28;20479;-77
2022/07/02 04:36:39;;;;;;;5.57;5.17;;;;;;;;;;5034771;28;20523;-76
2022/07/02 04:39:07;;;;;;;5.70;5.00;;;;;;;;;;5034160;28;20537;-76
2022/07/02 04:41:34;;;;;;;5.23;4.93;;;;;;;;;;5034078;28;21060;-77
2022/07/02 04:44:01;;;;;;;5.27;4.80;;;;;;;;;;5032851;28;20446;-76
2022/07/02 04:46:28;;;;;;;6.07;5.47;;;;;;;;;;5034161;28;20922;-76
2022/07/02 04:48:56;;;;;;;6.33;4.73;;;;;;;;;;5033094;28;20865;-78
2022/07/02 04:51:23;;;;;;;5.77;4.70;;;;;;;;;;5033937;28;21015;-77
2022/07/02 04:53:51;;;;;;;5.57;5.17;;;;;;;;;;5033645;28;20478;-77
2022/07/02 04:56:18;;;;;;;5.33;4.93;;;;;;;;;;5033967;28;20889;-77
2022/07/02 04:58:45;;;;;;;6.80;5.30;;;;;;;;;;5034250;28;20446;-76
2022/07/02 05:01:12;;;;;;;4.67;4.27;;;;;;;;;;5034492;28;20808;-77
2022/07/02 05:03:39;;;;;;;5.50;5.07;;;;;;;;;;5034188;28;20442;-76
2022/07/02 05:06:07;;;;;;;4.87;4.57;;;;;;;;;;5033715;28;20447;-76
2022/07/02 05:08:34;;;;;;;5.70;4.93;;;;;;;;;;5033469;28;20443;-76
2022/07/02 05:11:01;;;;;;;5.53;5.13;;;;;;;;;;5033801;28;20467;-76
2022/07/02 05:13:28;;;;;;;5.07;4.77;;;;;;;;;;5035583;28;20485;-75
2022/07/02 05:15:55;;;;;;;5.50;5.10;;;;;;;;;;5039417;28;20454;-75
2022/07/02 05:18:24;;;;;;;5.23;4.77;;;;;;;;;;5038854;28;20454;-75
2022/07/02 05:20:51;;;;;;;5.13;4.70;;;;;;;;;;5036371;28;20793;-76
2022/07/02 05:23:19;;;;;;;5.20;4.80;;;;;;;;;;5036436;28;20492;-76
2022/07/02 05:25:46;;;;;;;5.13;4.73;;;;;;;;;;5038711;28;20524;-76
2022/07/02 05:28:13;;;;;;;6.50;5.20;;;;;;;;;;5034721;28;20512;-75
2022/07/02 05:30:40;;;;;;;4.87;4.57;;;;;;;;;;5033070;28;20453;-76
2022/07/02 05:33:07;;;;;;;5.47;4.97;;;;;;;;;;5033306;28;20485;-76
2022/07/02 05:35:34;;;;;;;4.57;4.10;;;;;;;;;;5033240;28;20988;-77
2022/07/02 05:38:01;;;;;;;5.03;4.53;;;;;;;;;;5033080;28;20873;-77
2022/07/02 05:40:30;;;;;;;5.40;4.90;;;;;;;;;;5033163;28;20496;-76
2022/07/02 05:42:57;;;;;;;6.57;4.77;;;;;;;;;;5032529;28;20887;-77
2022/07/02 05:45:24;;;;;;;5.30;4.30;;;;;;;;;;5032724;28;20454;-76
2022/07/02 05:47:51;;;;;;;3.70;3.40;;;;;;;;;;5032746;28;20922;-77
2022/07/02 05:50:18;;;;;;;4.33;4.03;;;;;;;;;;5027067;28;20469;-76
2022/07/02 05:52:45;;;;;;;5.07;4.10;;;;;;;;;;5032050;28;20907;-78
2022/07/02 05:55:13;;;;;;;4.77;4.40;;;;;;;;;;5033298;28;20473;-76
2022/07/02 05:57:42;;;;;;;10.03;4.00;;;;;;;;;;5032567;28;20470;-76
2022/07/02 06:00:10;;;;;;;3.67;3.47;;;;;;;;;;5032565;28;20864;-76
2022/07/02 06:02:38;;;;;;;4.07;3.77;;;;;;;;;;5032449;28;20512;-76
2022/07/02 06:07:38;;;;;;;4.27;3.13;;;;;;;;;;5033102;28;20588;-76
2022/07/02 06:07:52;;;;;;;3.97;3.67;;;;;;;;;;5032286;28;21044;-76
2022/07/02 06:10:19;;;;;;;4.27;3.30;;;;;;;;;;5032342;28;20934;-76
2022/07/02 06:12:48;;;;;;;3.60;3.10;;;;;;;;;;5031281;28;20973;-76
2022/07/02 06:15:15;;;;;;;2.70;2.60;;;;;;;;;;5032687;28;20470;-76
2022/07/02 06:17:42;;;;;;;3.30;3.10;;;;;;;;;;5032488;28;20446;-76
2022/07/02 06:20:10;;;;;;;2.87;2.57;;;;;;;;;;5032310;28;20450;-75
2022/07/02 06:22:37;;;;;;;2.70;2.37;;;;;;;;;;5031967;28;20466;-76
2022/07/02 06:25:04;;;;;;;2.57;2.47;;;;;;;;;;5032402;28;20819;-77
2022/07/02 06:27:33;;;;;;;4.70;2.07;;;;;;;;;;5032561;28;20540;-76
2022/07/02 06:30:01;;;;;;;3.87;3.60;;;;;;;;;;5032664;28;20485;-77
2022/07/02 06:32:28;;;;;;;2.40;1.87;;;;;;;;;;5031897;28;20540;-77
2022/07/02 06:34:55;;;;;;;1.93;1.83;;;;;;;;;;5033212;28;20486;-76
2022/07/02 06:37:23;;;;;;;2.67;1.77;;;;;;;;;;5040558;28;20438;-76
2022/07/02 06:39:50;;;;;;;1.97;1.80;;;;;;;;;;5041419;28;20449;-76
2022/07/02 06:42:22;;;;;;;1.90;1.80;;;;;;;;;;5036418;28;20474;-76
2022/07/02 06:44:51;;;;;;;1.80;1.70;;;;;;;;;;5044051;28;20423;-76
2022/07/02 06:47:19;;;;;;;2.27;2.07;;;;;;;;;;5052491;28;20469;-77
2022/07/02 06:49:46;;;;;;;1.57;1.47;;;;;;;;;;5051664;28;20439;-77
2022/07/02 06:52:13;;;;;;;1.63;1.33;;;;;;;;;;5048975;28;20493;-76
2022/07/02 06:54:41;;;;;;;2.13;1.93;;;;;;;;;;5049870;28;20566;-76
2022/07/02 06:57:08;;;;;;;6.07;5.60;;;;;;;;;;5050057;28;20443;-76
2022/07/02 06:59:35;;;;;;;2.00;1.90;;;;;;;;;;5050010;28;20553;-75
2022/07/02 07:02:02;;;;;;;1.90;1.80;;;;;;;;;;5037694;28;20850;-76
2022/07/02 07:04:30;;;;;;;1.53;1.43;;;;;;;;;;5031472;28;20447;-76
2022/07/02 07:07:00;;;;;;;1.70;1.60;;;;;;;;;;5032000;28;20500;-76
2022/07/02 07:09:28;;;;;;;1.30;1.20;;;;;;;;;;5031741;28;20453;-76
2022/07/02 07:11:55;;;;;;;1.60;1.50;;;;;;;;;;5048951;28;20569;-76
2022/07/02 07:14:22;;;;;;;1.80;1.70;;;;;;;;;;5051660;28;20544;-77
2022/07/02 07:16:49;;;;;;;1.10;1.10;;;;;;;;;;5034130;28;20458;-76
2022/07/02 07:19:16;;;;;;;1.07;1.07;;;;;;;;;;5033496;28;20447;-76
2022/07/02 07:21:44;;;;;;;1.40;1.30;;;;;;;;;;5032526;28;20512;-77
2022/07/02 07:24:11;;;;;;;1.33;1.20;;;;;;;;;;5032143;28;20446;-76
2022/07/02 07:26:39;;;;;;;1.60;0.90;;;;;;;;;;5032951;28;20488;-76
2022/07/02 07:29:07;;;;;;;2.60;1.80;;;;;;;;;;5032552;28;20870;-76
2022/07/02 07:31:34;;;;;;;1.57;1.23;;;;;;;;;;5032540;28;20466;-76
2022/07/02 07:34:02;;;;;;;2.13;1.90;;;;;;;;;;5031584;28;20478;-76
2022/07/02 07:36:29;;;;;;;1.37;1.37;;;;;;;;;;5031192;28;20489;-76
2022/07/02 07:38:57;;;;;;;1.50;1.40;;;;;;;;;;5032121;28;20434;-76
2022/07/02 07:41:25;;;;;;;1.63;1.00;;;;;;;;;;5031633;28;21100;-76
2022/07/02 07:43:52;;;;;;;1.30;1.20;;;;;;;;;;5031176;28;20926;-75
2022/07/02 07:46:19;;;;;;;1.47;1.37;;;;;;;;;;5031410;28;20977;-76
2022/07/02 07:48:46;;;;;;;1.23;1.20;;;;;;;;;;5031532;28;20529;-76
2022/07/02 07:51:14;;;;;;;1.00;1.00;;;;;;;;;;5031290;28;21060;-77
2022/07/02 07:53:41;;;;;;;1.27;1.27;;;;;;;;;;5031495;28;20478;-76
2022/07/02 07:56:09;;;;;;;1.00;0.80;;;;;;;;;;5035089;28;20445;-76
2022/07/02 07:58:36;;;;;;;0.97;0.97;;;;;;;;;;5035249;28;20454;-77
2022/07/02 08:01:03;;;;;;;1.20;1.10;;;;;;;;;;5035166;28;20475;-75
2022/07/02 08:03:30;;;;;;;6.43;5.93;;;;;;;;;;5034817;28;20442;-76
2022/07/02 08:05:58;;;;;;;2.00;1.90;;;;;;;;;;5034567;28;20446;-76
2022/07/02 08:08:25;;;;;;;0.90;0.90;;;;;;;;;;5033657;28;20438;-76
2022/07/02 08:10:52;;;;;;;1.40;1.17;;;;;;;;;;5034751;28;20738;-76
2022/07/02 08:13:22;;;;;;;1.87;1.00;;;;;;;;;;5033989;28;20443;-76
2022/07/02 08:15:49;;;;;;;1.00;1.00;;;;;;;;;;5034639;28;20450;-77
2022/07/02 08:18:16;;;;;;;1.00;0.90;;;;;;;;;;5040283;28;20445;-76
2022/07/02 08:20:43;;;;;;;1.10;1.10;;;;;;;;;;5044918;28;20927;-76
2022/07/02 08:23:10;;;;;;;0.87;0.87;;;;;;;;;;5035671;28;20446;-76
2022/07/02 08:25:37;;;;;;;0.93;0.93;;;;;;;;;;5034235;28;20864;-76
2022/07/02 08:28:04;;;;;;;1.40;1.10;;;;;;;;;;5034218;28;20961;-76
2022/07/02 08:30:33;;;;;;;0.97;0.97;;;;;;;;;;5034048;28;20525;-76
2022/07/02 08:33:00;;;;;;;0.90;0.90;;;;;;;;;;5033429;28;20475;-76
2022/07/02 08:35:27;;;;;;;1.70;1.20;;;;;;;;;;5033843;28;20475;-76
2022/07/02 08:37:54;;;;;;;1.13;1.03;;;;;;;;;;5034207;28;20446;-76
2022/07/02 08:40:23;;;;;;;0.90;0.90;;;;;;;;;;5035263;28;20502;-76
2022/07/02 08:42:51;;;;;;;0.90;0.90;;;;;;;;;;5035250;28;20478;-76
2022/07/02 08:45:18;;;;;;;1.43;0.80;;;;;;;;;;5034298;28;20865;-77
2022/07/02 08:47:47;;;;;;;0.90;0.90;;;;;;;;;;5033670;28;20447;-75
2022/07/02 08:50:15;;;;;;;1.17;1.07;;;;;;;;;;5033854;28;20509;-76
2022/07/02 08:52:42;;;;;;;2.10;0.80;;;;;;;;;;5035203;28;20470;-76
2022/07/02 08:55:10;;;;;;;0.90;0.83;;;;;;;;;;5034950;28;20609;-75
2022/07/02 08:57:39;;;;;;;0.70;0.70;;;;;;;;;;5034455;28;20450;-76
2022/07/02 09:00:07;;;;;;;1.20;1.10;;;;;;;;;;5033579;28;20504;-76
2022/07/02 09:02:35;;;;;;;0.83;0.80;;;;;;;;;;5033693;28;20820;-76
2022/07/02 09:05:04;;;;;;;0.90;0.90;;;;;;;;;;5033878;28;20443;-75
2022/07/02 09:07:31;;;;;;;1.23;0.73;;;;;;;;;;5034565;28;20484;-77
2022/07/02 09:09:59;;;;;;;0.77;0.77;;;;;;;;;;5033901;28;20438;-75
2022/07/02 09:12:27;;;;;;;1.20;1.10;;;;;;;;;;5034070;28;20541;-75
2022/07/02 09:14:54;;;;;;;1.10;1.00;;;;;;;;;;5033808;28;20479;-75
2022/07/02 09:17:21;;;;;;;1.30;1.20;;;;;;;;;;5034306;28;20486;-75
2022/07/02 09:19:48;;;;;;;0.97;0.97;;;;;;;;;;5034000;28;20446;-76
2022/07/02 09:22:16;;;;;;;0.77;0.77;;;;;;;;;;5034270;28;20521;-76
2022/07/02 09:24:44;;;;;;;1.13;0.90;;;;;;;;;;5033201;28;20922;-76
2022/07/02 09:27:12;;;;;;;2.50;1.00;;;;;;;;;;5033271;28;20957;-76
2022/07/02 09:29:43;;;;;;;0.87;0.87;;;;;;;;;;5033246;28;20446;-76
2022/07/02 09:32:10;;;;;;;2.00;1.70;;;;;;;;;;5033229;28;20466;-76
2022/07/02 09:34:41;;;;;;;0.80;0.80;;;;;;;;;;5032897;28;20845;-76
2022/07/02 09:37:17;;;;;;;1.80;0.80;;;;;;;;;;5031297;28;21793;-76
2022/07/02 09:39:45;;;;;;;0.90;0.90;;;;;;;;;;5029020;28;20923;-76
2022/07/02 09:42:12;;;;;;;3.60;0.80;;;;;;;;;;5020805;28;20499;-77
2022/07/02 09:44:46;;;;;;;0.63;0.63;;;;;;;;;;5022358;28;20480;-76
2022/07/02 09:47:13;;;;;;;0.70;0.70;;;;;;;;;;5030276;28;20446;-77
2022/07/02 09:49:47;;;;;;;0.60;0.60;;;;;;;;;;5029486;28;20880;-76
2022/07/02 09:52:16;;;;;;;0.70;0.70;;;;;;;;;;5020768;28;20468;-76
2022/07/02 09:54:44;;;;;;;0.73;0.73;;;;;;;;;;5022568;28;21115;-76
2022/07/02 09:57:12;;;;;;;0.70;0.70;;;;;;;;;;5021424;28;20847;-77
2022/07/02 09:59:39;;;;;;;1.03;0.70;;;;;;;;;;5021110;28;20928;-76
2022/07/02 10:02:07;;;;;;;1.63;0.70;;;;;;;;;;5029245;28;20806;-76
2022/07/02 10:04:35;;;;;;;0.60;0.60;;;;;;;;;;5031715;28;20500;-76
2022/07/02 10:07:02;;;;;;;2.07;1.00;;;;;;;;;;5031846;28;20500;-76
2022/07/02 10:09:30;;;;;;;1.40;1.30;;;;;;;;;;5019458;28;20443;-76
2022/07/02 10:11:58;;;;;;;0.90;0.90;;;;;;;;;;5011933;28;20865;-76
2022/07/02 10:14:25;;;;;;;0.80;0.80;;;;;;;;;;5011771;28;21068;-75
2022/07/02 10:16:53;;;;;;;0.93;0.83;;;;;;;;;;5012075;28;20509;-76
2022/07/02 10:19:20;;;;;;;1.40;1.00;;;;;;;;;;5012176;28;21138;-76
2022/07/02 10:21:49;;;;;;;1.17;0.90;;;;;;;;;;5017319;28;20462;-76
2022/07/02 10:24:16;;;;;;;1.13;1.13;;;;;;;;;;5030355;28;20838;-76
2022/07/02 10:26:45;;;;;;;1.10;0.90;;;;;;;;;;5030980;28;20828;-77
2022/07/02 10:29:14;;;;;;;0.90;0.90;;;;;;;;;;5025053;28;20446;-76
2022/07/02 10:31:50;;;;;;;1.53;1.53;;;;;;;;;;5011144;28;20913;-77
2022/07/02 10:34:27;;;;;;;1.33;1.23;;;;;;;;;;5017491;28;20490;-76
2022/07/02 10:36:54;;;;;;;0.73;0.60;;;;;;;;;;5031177;28;20533;-76
2022/07/02 10:39:21;;;;;;;1.03;0.80;;;;;;;;;;5030488;28;20574;-76
2022/07/02 10:41:49;;;;;;;0.73;0.70;;;;;;;;;;5030357;28;20524;-77
2022/07/02 10:44:17;;;;;;;0.70;0.70;;;;;;;;;;5030038;28;20942;-76
2022/07/02 10:46:48;;;;;;;0.90;0.90;;;;;;;;;;5030428;28;20799;-76
2022/07/02 10:49:25;;;;;;;1.10;1.10;;;;;;;;;;5030482;28;20450;-76
2022/07/02 10:51:54;;;;;;;0.90;0.90;;;;;;;;;;5022854;28;20508;-76
2022/07/02 10:54:30;;;;;;;0.50;0.50;;;;;;;;;;5012773;28;20479;-76
2022/07/02 10:56:59;;;;;;;4.87;4.40;;;;;;;;;;5014939;28;20438;-76
2022/07/02 10:59:27;;;;;;;4.73;4.37;;;;;;;;;;5015540;28;20447;-76
2022/07/02 11:02:04;;;;;;;1.53;1.43;;;;;;;;;;5014087;28;20884;-74
2022/07/02 11:04:31;;;;;;;1.13;1.13;;;;;;;;;;5013386;28;20497;-74
2022/07/02 11:07:06;;;;;;;1.10;1.10;;;;;;;;;;5013613;28;20489;-75
2022/07/02 11:09:33;;;;;;;1.73;1.40;;;;;;;;;;5023496;28;20525;-75
2022/07/02 11:12:02;;;;;;;3.00;1.33;;;;;;;;;;5030301;28;20515;-75
2022/07/02 11:14:30;;;;;;;1.80;1.63;;;;;;;;;;5029721;28;20480;-75
2022/07/02 11:16:57;;;;;;;0.80;0.80;;;;;;;;;;5029938;28;20525;-74
2022/07/02 11:19:26;;;;;;;0.60;0.60;;;;;;;;;;5030084;28;20438;-74
2022/07/02 11:21:54;;;;;;;0.80;0.80;;;;;;;;;;5029824;28;20519;-74
2022/07/02 11:24:22;;;;;;;2.33;1.10;;;;;;;;;;5029796;28;20834;-75
2022/07/02 11:26:49;;;;;;;1.23;1.20;;;;;;;;;;5030123;28;20443;-75
2022/07/02 11:29:18;;;;;;;0.80;0.77;;;;;;;;;;5031988;28;20508;-75
2022/07/02 11:31:46;;;;;;;0.67;0.67;;;;;;;;;;5033931;28;20466;-75
2022/07/02 11:34:16;;;;;;;0.60;0.60;;;;;;;;;;5033799;28;20456;-75
2022/07/02 11:36:43;;;;;;;0.57;0.57;;;;;;;;;;5033989;28;20464;-75
2022/07/02 11:39:11;;;;;;;0.83;0.80;;;;;;;;;;5034055;28;20438;-75
2022/07/02 11:41:38;;;;;;;0.80;0.80;;;;;;;;;;5033603;28;20481;-75
2022/07/02 11:44:16;;;;;;;1.00;1.00;;;;;;;;;;5033529;28;20497;-76
2022/07/02 11:46:45;;;;;;;0.63;0.63;;;;;;;;;;5033782;28;20869;-76
2022/07/02 11:49:15;;;;;;;0.93;0.93;;;;;;;;;;5033673;28;20512;-76
2022/07/02 11:51:42;;;;;;;1.00;1.00;;;;;;;;;;5033964;28;20473;-76
2022/07/02 11:54:10;;;;;;;0.70;0.70;;;;;;;;;;5033339;28;20960;-75
2022/07/02 11:56:39;;;;;;;1.40;1.40;;;;;;;;;;5033487;28;20496;-76
2022/07/02 11:59:08;;;;;;;1.33;0.70;;;;;;;;;;5033523;28;20541;-75
2022/07/02 12:01:36;;;;;;;0.80;0.40;;;;;;;;;;5033542;28;20508;-75
2022/07/02 12:04:05;;;;;;;0.67;0.67;;;;;;;;;;5033320;28;20454;-74
2022/07/02 12:06:33;;;;;;;3.60;3.33;;;;;;;;;;5033449;28;20871;-75
2022/07/02 12:09:01;;;;;;;1.03;1.03;;;;;;;;;;5024829;28;20462;-75
2022/07/02 12:11:28;;;;;;;0.70;0.57;;;;;;;;;;5013635;28;20467;-76
2022/07/02 12:13:57;;;;;;;0.70;0.70;;;;;;;;;;5012749;28;20473;-76
2022/07/02 12:16:25;;;;;;;1.30;0.90;;;;;;;;;;5013449;28;20911;-75
2022/07/02 12:19:02;;;;;;;0.90;0.90;;;;;;;;;;5013528;28;20498;-76
2022/07/02 12:21:38;;;;;;;0.90;0.80;;;;;;;;;;5013390;28;20482;-76
2022/07/02 12:24:06;;;;;;;0.80;0.80;;;;;;;;;;5013306;28;20451;-76
2022/07/02 12:26:33;;;;;;;1.33;1.13;;;;;;;;;;5012959;28;20447;-76
2022/07/02 12:31:50;;;;;;;0.70;0.70;;;;;;;;;;5013620;28;20574;-76
2022/07/02 12:34:17;;;;;;;0.60;0.60;;;;;;;;;;5013102;28;20451;-76
2022/07/02 12:36:46;;;;;;;0.80;0.70;;;;;;;;;;5013175;28;20483;-75
2022/07/02 12:39:14;;;;;;;0.70;0.70;;;;;;;;;;5013022;28;20443;-76
2022/07/02 12:41:41;;;;;;;0.80;0.60;;;;;;;;;;5012138;28;20482;-76
2022/07/02 12:44:16;;;;;;;0.60;0.60;;;;;;;;;;5030316;28;20458;-77
2022/07/02 12:46:44;;;;;;;1.00;1.00;;;;;;;;;;5032731;28;20448;-76
2022/07/02 12:49:15;;;;;;;0.63;0.63;;;;;;;;;;5028263;28;20443;-75
2022/07/02 12:51:52;;;;;;;2.00;0.70;;;;;;;;;;5029687;28;20462;-75
2022/07/02 12:54:19;;;;;;;0.97;0.97;;;;;;;;;;5027258;28;20446;-76
2022/07/02 12:56:46;;;;;;;0.70;0.67;;;;;;;;;;5035625;28;20515;-77
2022/07/02 12:59:13;;;;;;;0.80;0.70;;;;;;;;;;5052364;28;20437;-75
2022/07/02 13:01:40;;;;;;;0.70;0.70;;;;;;;;;;5052641;28;20520;-76
2022/07/02 13:04:07;;;;;;;0.83;0.83;;;;;;;;;;5052137;28;20472;-76
2022/07/02 13:06:34;;;;;;;1.33;0.90;;;;;;;;;;5052564;28;20442;-76
2022/07/02 13:09:02;;;;;;;0.70;0.70;;;;;;;;;;5043518;28;20446;-76
2022/07/02 13:11:30;;;;;;;0.70;0.60;;;;;;;;;;5032165;28;20470;-76
2022/07/02 13:13:57;;;;;;;0.70;0.70;;;;;;;;;;5031833;28;20439;-76
2022/07/02 13:16:24;;;;;;;1.97;0.80;;;;;;;;;;5031982;28;20531;-76
2022/07/02 13:18:51;;;;;;;1.90;1.43;;;;;;;;;;5031891;28;21312;-78
2022/07/02 13:21:18;;;;;;;0.70;0.70;;;;;;;;;;5032488;28;20463;-77
2022/07/02 13:23:45;;;;;;;1.10;1.00;;;;;;;;;;5031893;28;20442;-77
2022/07/02 13:26:14;;;;;;;1.77;1.67;;;;;;;;;;5031835;28;20451;-76
2022/07/02 13:28:41;;;;;;;1.10;1.00;;;;;;;;;;5030927;28;20588;-76
2022/07/02 13:31:08;;;;;;;0.77;0.77;;;;;;;;;;5023561;28;20524;-76
2022/07/02 13:33:35;;;;;;;0.80;0.80;;;;;;;;;;5031653;28;20450;-75
2022/07/02 13:36:02;;;;;;;0.70;0.70;;;;;;;;;;5031715;28;20482;-76
2022/07/02 13:38:29;;;;;;;0.60;0.60;;;;;;;;;;5031965;28;20450;-76
2022/07/02 13:40:56;;;;;;;0.83;0.83;;;;;;;;;;5031758;28;20450;-75
2022/07/02 13:43:24;;;;;;;0.80;0.80;;;;;;;;;;5031515;28;20462;-76
2022/07/02 13:45:51;;;;;;;1.00;1.00;;;;;;;;;;5031781;28;20447;-75
2022/07/02 13:48:18;;;;;;;0.63;0.57;;;;;;;;;;5031885;28;20873;-77
2022/07/02 13:50:45;;;;;;;0.70;0.70;;;;;;;;;;5031623;28;20500;-76
2022/07/02 13:53:12;;;;;;;1.27;0.80;;;;;;;;;;5030862;28;20443;-76
2022/07/02 13:55:39;;;;;;;0.80;0.80;;;;;;;;;;5031891;28;20830;-76
2022/07/02 13:58:06;;;;;;;0.90;0.90;;;;;;;;;;5031064;28;20750;-76
2022/07/02 14:00:35;;;;;;;0.90;0.77;;;;;;;;;;5031384;28;20446;-76
2022/07/02 14:03:02;;;;;;;0.70;0.70;;;;;;;;;;5030952;28;21052;-76
2022/07/02 14:05:29;;;;;;;0.60;0.60;;;;;;;;;;5031467;28;20504;-76
2022/07/02 14:07:56;;;;;;;1.17;0.80;;;;;;;;;;5031268;28;20510;-75
2022/07/02 14:10:23;;;;;;;1.17;0.60;;;;;;;;;;5028505;28;20454;-76
2022/07/02 14:12:50;;;;;;;0.80;0.80;;;;;;;;;;5029077;28;21416;-76
2022/07/02 14:15:18;;;;;;;0.83;0.70;;;;;;;;;;5031150;28;20445;-77
2022/07/02 14:17:47;;;;;;;1.13;0.90;;;;;;;;;;5032155;28;20505;-77
2022/07/02 14:20:14;;;;;;;0.73;0.73;;;;;;;;;;5031856;28;20443;-76
2022/07/02 14:22:41;;;;;;;1.00;1.00;;;;;;;;;;5031096;28;20516;-76
2022/07/02 14:25:08;;;;;;;0.87;0.83;;;;;;;;;;5031312;28;20516;-76
2022/07/02 14:27:35;;;;;;;0.80;0.80;;;;;;;;;;5031926;28;20450;-76
2022/07/02 14:30:03;;;;;;;1.33;0.83;;;;;;;;;;5031919;28;20446;-76
2022/07/02 14:32:30;;;;;;;1.63;1.10;;;;;;;;;;5031379;28;20470;-76
2022/07/02 14:34:58;;;;;;;0.93;0.90;;;;;;;;;;5031694;28;20439;-76
2022/07/02 14:37:27;;;;;;;0.90;0.70;;;;;;;;;;5031374;28;20478;-77
2022/07/02 14:39:54;;;;;;;1.80;0.70;;;;;;;;;;5031127;28;20446;-76
2022/07/02 14:42:21;;;;;;;1.33;0.90;;;;;;;;;;5031384;28;20478;-76
2022/07/02 14:44:48;;;;;;;2.10;0.70;;;;;;;;;;5031388;28;20462;-76
2022/07/02 14:47:15;;;;;;;0.70;0.70;;;;;;;;;;5031751;28;20442;-76
2022/07/02 14:49:42;;;;;;;1.23;0.77;;;;;;;;;;5031621;28;20442;-76